createdAt,value
2018-12-25T00:02:25.382Z,84.80
2018-12-25T00:05:05.197Z,84.30
2018-12-25T00:07:44.311Z,84.50
2018-12-25T00:10:23.749Z,84.40
2018-12-25T00:13:03.256Z,84.30
2018-12-25T00:15:43.021Z,84.30
2018-12-25T00:18:22.113Z,84.40
2018-12-25T00:21:01.541Z,84.40
2018-12-25T00:23:41.001Z,84.60
2018-12-25T00:26:20.585Z,84.40
2018-12-25T00:28:59.774Z,84.50
2018-12-25T00:31:39.452Z,84.10
2018-12-25T00:34:18.800Z,84.00
2018-12-25T00:36:59.033Z,84.00
2018-12-25T00:39:38.129Z,84.10
2018-12-25T00:42:17.724Z,84.40
2018-12-25T00:44:57.226Z,84.50
2018-12-25T00:47:37.014Z,84.00
2018-12-25T00:50:16.173Z,84.30
2018-12-25T00:52:55.509Z,84.20
2018-12-25T00:55:35.273Z,84.10
2018-12-25T00:58:15.090Z,84.20
2018-12-25T01:00:55.032Z,84.00
2018-12-25T01:03:34.477Z,83.20
2018-12-25T01:06:14.132Z,84.20
2018-12-25T01:08:53.693Z,84.10
2018-12-25T01:11:33.080Z,83.80
2018-12-25T01:14:12.281Z,83.90
2018-12-25T01:16:52.147Z,83.70
2018-12-25T01:19:32.508Z,83.90
2018-12-25T01:22:12.006Z,82.80
2018-12-25T01:24:51.877Z,84.00
2018-12-25T01:27:31.554Z,84.00
2018-12-25T01:30:11.291Z,84.00
2018-12-25T01:32:51.325Z,83.70
2018-12-25T01:35:30.917Z,84.00
2018-12-25T01:38:10.258Z,83.80
2018-12-25T01:40:50.153Z,83.90
2018-12-25T01:43:30.078Z,84.10
2018-12-25T01:46:09.684Z,84.10
2018-12-25T01:48:49.041Z,84.10
2018-12-25T01:51:28.731Z,84.00
2018-12-25T01:54:07.925Z,84.10
2018-12-25T01:56:47.344Z,83.90
2018-12-25T01:59:26.896Z,83.50
2018-12-25T02:02:06.643Z,83.90
2018-12-25T02:04:46.764Z,84.00
2018-12-25T02:07:26.201Z,84.20
2018-12-25T02:10:05.798Z,84.00
2018-12-25T02:12:45.638Z,84.20
2018-12-25T02:15:24.736Z,84.10
2018-12-25T02:18:03.991Z,84.10
2018-12-25T02:20:43.425Z,84.00
2018-12-25T02:23:22.706Z,84.00
2018-12-25T02:26:01.940Z,84.00
2018-12-25T02:28:41.456Z,83.90
2018-12-25T02:31:20.514Z,83.90
2018-12-25T02:34:00.291Z,83.90
2018-12-25T02:36:40.448Z,83.90
2018-12-25T02:39:20.112Z,83.60
2018-12-25T02:41:59.506Z,83.80
2018-12-25T02:44:39.142Z,84.00
2018-12-25T02:47:18.401Z,84.00
2018-12-25T02:49:58.589Z,83.60
2018-12-25T02:52:38.302Z,84.00
2018-12-25T02:55:17.658Z,83.90
2018-12-25T02:57:56.859Z,83.70
2018-12-25T03:00:36.464Z,83.80
2018-12-25T03:03:16.332Z,83.90
2018-12-25T03:05:55.817Z,83.70
2018-12-25T03:08:35.568Z,84.00
2018-12-25T03:11:14.869Z,83.70
2018-12-25T03:13:54.002Z,83.60
2018-12-25T03:16:33.533Z,83.90
2018-12-25T03:19:13.148Z,84.00
2018-12-25T03:21:52.499Z,83.70
2018-12-25T03:24:31.650Z,83.30
2018-12-25T03:27:11.133Z,83.70
2018-12-25T03:29:50.510Z,83.60
2018-12-25T03:32:29.856Z,83.30
2018-12-25T03:35:09.441Z,83.50
2018-12-25T03:37:48.648Z,83.70
2018-12-25T03:40:27.780Z,83.30
2018-12-25T03:43:07.081Z,83.20
2018-12-25T03:45:46.641Z,82.70
2018-12-25T03:48:26.027Z,83.40
2018-12-25T03:51:05.669Z,83.30
2018-12-25T03:53:45.628Z,82.90
2018-12-25T03:56:25.314Z,83.20
2018-12-25T03:59:04.733Z,84.10
2018-12-25T04:01:43.881Z,83.20
2018-12-25T04:04:23.346Z,83.30
2018-12-25T04:07:02.833Z,82.40
2018-12-25T04:09:42.083Z,83.40
2018-12-25T04:12:21.450Z,82.80
2018-12-25T04:15:00.739Z,81.60
2018-12-25T04:17:39.997Z,83.20
2018-12-25T04:20:20.206Z,82.90
2018-12-25T04:23:00.259Z,83.10
2018-12-25T04:25:39.322Z,82.00
2018-12-25T04:28:18.740Z,82.40
2018-12-25T04:30:58.208Z,81.80
2018-12-25T04:33:37.785Z,83.00
2018-12-25T04:36:17.389Z,82.20
2018-12-25T04:38:56.745Z,83.40
2018-12-25T04:41:36.126Z,83.00
2018-12-25T04:44:15.325Z,83.10
2018-12-25T04:46:54.412Z,83.10
2018-12-25T04:49:33.980Z,83.20
2018-12-25T04:52:13.941Z,83.20
2018-12-25T04:54:53.270Z,83.40
2018-12-25T04:57:32.788Z,83.20
2018-12-25T04:59:58.972Z,81.90
2018-12-25T05:02:45.029Z,83.40
2018-12-25T05:05:31.074Z,83.00
2018-12-25T05:08:17.129Z,83.20
2018-12-25T05:11:03.166Z,83.40
2018-12-25T05:13:49.220Z,82.80
2018-12-25T05:16:35.275Z,82.80
2018-12-25T05:19:15.012Z,83.00
2018-12-25T05:21:54.680Z,82.60
2018-12-25T05:24:33.797Z,82.80
2018-12-25T05:27:13.248Z,82.60
2018-12-25T05:29:52.343Z,82.50
2018-12-25T05:32:31.597Z,82.90
2018-12-25T05:35:10.998Z,82.70
2018-12-25T05:37:50.424Z,82.80
2018-12-25T05:40:29.913Z,82.60
2018-12-25T05:43:09.273Z,82.80
2018-12-25T05:45:48.638Z,82.70
2018-12-25T05:48:28.149Z,82.90
2018-12-25T05:51:07.629Z,82.70
2018-12-25T05:53:46.788Z,82.90
2018-12-25T05:56:26.242Z,83.10
2018-12-25T05:59:05.740Z,82.80
2018-12-25T06:01:45.175Z,82.90
2018-12-25T06:04:24.664Z,82.60
2018-12-25T06:07:04.322Z,82.70
2018-12-25T06:09:43.693Z,82.80
2018-12-25T06:12:23.077Z,82.80
2018-12-25T06:15:02.749Z,82.90
2018-12-25T06:17:42.225Z,83.00
2018-12-25T06:20:21.544Z,82.50
2018-12-25T06:23:00.950Z,82.70
2018-12-25T06:25:40.378Z,82.60
2018-12-25T06:28:20.128Z,82.60
2018-12-25T06:31:00.097Z,82.70
2018-12-25T06:33:39.389Z,82.90
2018-12-25T06:36:19.327Z,82.40
2018-12-25T06:38:59.021Z,82.60
2018-12-25T06:41:38.868Z,81.70
2018-12-25T06:44:18.149Z,82.60
2018-12-25T06:46:57.755Z,82.20
2018-12-25T06:49:37.128Z,82.60
2018-12-25T06:52:16.695Z,82.20
2018-12-25T06:54:56.330Z,82.20
2018-12-25T06:57:36.109Z,82.00
2018-12-25T07:00:15.868Z,82.00
2018-12-25T07:02:55.016Z,82.10
2018-12-25T07:05:34.557Z,80.20
2018-12-25T07:08:14.218Z,82.00
2018-12-25T07:10:53.532Z,82.10
2018-12-25T07:13:33.113Z,81.90
2018-12-25T07:16:12.597Z,82.40
2018-12-25T07:18:52.165Z,82.50
2018-12-25T07:21:31.964Z,82.30
2018-12-25T07:24:11.324Z,82.50
2018-12-25T07:26:51.340Z,81.80
2018-12-25T07:29:30.700Z,82.70
2018-12-25T07:32:10.160Z,82.20
2018-12-25T07:34:49.741Z,82.50
2018-12-25T07:37:29.063Z,82.70
2018-12-25T07:40:08.316Z,82.40
2018-12-25T07:42:47.662Z,82.50
2018-12-25T07:45:27.302Z,82.50
2018-12-25T07:48:06.629Z,82.40
2018-12-25T07:50:45.756Z,82.70
2018-12-25T07:53:24.985Z,82.70
2018-12-25T07:56:04.513Z,82.60
2018-12-25T07:58:43.956Z,82.50
2018-12-25T08:01:23.278Z,82.60
2018-12-25T08:04:02.822Z,82.50
2018-12-25T08:06:41.976Z,82.80
2018-12-25T08:09:21.248Z,82.50
2018-12-25T08:12:01.995Z,82.80
2018-12-25T08:14:42.234Z,79.70
2018-12-25T08:17:21.637Z,82.90
2018-12-25T08:20:00.997Z,82.70
2018-12-25T08:22:40.137Z,82.60
2018-12-25T08:25:19.912Z,82.90
2018-12-25T08:27:59.313Z,82.80
2018-12-25T08:30:38.760Z,82.40
2018-12-25T08:33:18.193Z,82.90
2018-12-25T08:35:57.920Z,83.10
2018-12-25T08:38:37.380Z,82.90
2018-12-25T08:41:16.822Z,83.00
2018-12-25T08:43:56.420Z,83.10
2018-12-25T08:46:35.704Z,83.30
2018-12-25T08:49:15.414Z,83.00
2018-12-25T08:51:55.032Z,83.10
2018-12-25T08:54:34.469Z,83.00
2018-12-25T08:57:13.806Z,83.00
2018-12-25T08:59:53.524Z,82.90
2018-12-25T09:02:33.072Z,83.20
2018-12-25T09:05:12.317Z,81.90
2018-12-25T09:07:51.872Z,83.10
2018-12-25T09:10:31.200Z,82.20
2018-12-25T09:13:10.653Z,83.50
2018-12-25T09:15:49.839Z,83.90
2018-12-25T09:18:29.407Z,83.50
2018-12-25T09:21:08.548Z,83.40
2018-12-25T09:23:47.625Z,83.40
2018-12-25T09:26:27.216Z,83.50
2018-12-25T09:29:06.764Z,83.40
2018-12-25T09:31:45.953Z,83.50
2018-12-25T09:34:25.580Z,83.60
2018-12-25T09:37:05.267Z,83.40
2018-12-25T09:39:44.917Z,83.40
2018-12-25T09:42:24.116Z,82.70
2018-12-25T09:45:03.191Z,83.50
2018-12-25T09:47:43.121Z,83.40
2018-12-25T09:50:22.659Z,83.20
2018-12-25T09:53:02.318Z,83.50
2018-12-25T09:55:41.620Z,83.40
2018-12-25T09:58:21.388Z,84.30
2018-12-25T10:01:00.643Z,83.70
2018-12-25T10:03:40.112Z,83.40
2018-12-25T10:06:19.234Z,83.20
2018-12-25T10:08:58.764Z,81.90
2018-12-25T10:11:44.315Z,83.50
2018-12-25T10:14:19.740Z,82.70
2018-12-25T10:16:59.288Z,82.50
2018-12-25T10:19:38.739Z,82.20
2018-12-25T10:22:18.209Z,82.00
2018-12-25T10:24:58.061Z,81.90
2018-12-25T10:27:37.747Z,82.30
2018-12-25T10:30:17.134Z,82.50
2018-12-25T10:32:56.929Z,82.30
2018-12-25T10:35:36.328Z,82.70
2018-12-25T10:38:16.152Z,82.30
2018-12-25T10:40:55.832Z,82.00
2018-12-25T10:43:35.460Z,82.00
2018-12-25T10:46:15.320Z,82.70
2018-12-25T10:48:54.637Z,82.90
2018-12-25T10:51:34.330Z,82.90
2018-12-25T10:54:14.008Z,82.40
2018-12-25T10:56:53.144Z,82.20
2018-12-25T10:59:32.757Z,82.20
2018-12-25T11:02:12.517Z,82.40
2018-12-25T11:04:51.716Z,81.70
2018-12-25T11:07:31.589Z,81.70
2018-12-25T11:10:10.781Z,81.80
2018-12-25T11:12:50.412Z,81.30
2018-12-25T11:15:29.569Z,81.10
2018-12-25T11:18:09.365Z,81.10
2018-12-25T11:20:48.963Z,80.70
2018-12-25T11:23:28.809Z,81.30
2018-12-25T11:26:08.423Z,81.30
2018-12-25T11:28:48.423Z,80.00
2018-12-25T11:31:28.144Z,81.50
2018-12-25T11:34:07.772Z,81.90
2018-12-25T11:36:47.704Z,83.00
2018-12-25T11:39:27.068Z,82.50
2018-12-25T11:42:06.464Z,82.50
2018-12-25T11:44:46.235Z,82.10
2018-12-25T11:47:26.402Z,83.40
2018-12-25T11:50:05.772Z,82.60
2018-12-25T11:52:46.000Z,81.80
2018-12-25T11:55:25.133Z,82.00
2018-12-25T11:58:04.725Z,81.60
2018-12-25T12:00:44.086Z,80.90
2018-12-25T12:03:23.965Z,80.50
2018-12-25T12:06:03.062Z,80.30
2018-12-25T12:08:42.572Z,78.90
2018-12-25T12:11:21.906Z,80.10
2018-12-25T12:14:01.409Z,79.20
2018-12-25T12:16:41.121Z,80.40
2018-12-25T12:19:21.258Z,79.80
2018-12-25T12:22:00.390Z,80.10
2018-12-25T12:24:40.017Z,80.30
2018-12-25T12:27:19.145Z,80.20
2018-12-25T12:29:58.732Z,79.90
2018-12-25T12:32:37.921Z,79.90
2018-12-25T12:35:17.333Z,79.50
2018-12-25T12:37:56.749Z,80.10
2018-12-25T12:40:36.373Z,80.20
2018-12-25T12:43:15.525Z,80.40
2018-12-25T12:45:55.076Z,80.10
2018-12-25T12:48:34.604Z,79.90
2018-12-25T12:51:14.825Z,79.70
2018-12-25T12:53:54.495Z,78.80
2018-12-25T12:56:33.769Z,79.90
2018-12-25T12:59:13.720Z,77.40
2018-12-25T13:01:52.997Z,79.60
2018-12-25T13:04:32.761Z,78.90
2018-12-25T13:07:12.077Z,78.90
2018-12-25T13:09:51.317Z,79.00
2018-12-25T13:12:31.106Z,78.80
2018-12-25T13:15:10.380Z,78.80
2018-12-25T13:17:49.828Z,79.50
2018-12-25T13:20:29.285Z,79.30
2018-12-25T13:23:08.436Z,77.70
2018-12-25T13:25:47.925Z,78.20
2018-12-25T13:28:27.292Z,77.60
2018-12-25T13:31:06.949Z,77.20
2018-12-25T13:33:46.198Z,77.30
2018-12-25T13:36:25.816Z,77.60
2018-12-25T13:39:05.853Z,78.00
2018-12-25T13:41:45.333Z,78.60
2018-12-25T13:44:25.161Z,78.90
2018-12-25T13:47:04.409Z,78.10
2018-12-25T13:49:43.763Z,76.80
2018-12-25T13:53:04.606Z,77.30
2018-12-25T13:55:43.568Z,77.70
2018-12-25T13:58:22.556Z,77.60
2018-12-25T14:01:01.764Z,78.40
2018-12-25T14:03:41.556Z,77.70
2018-12-25T14:06:21.492Z,78.10
2018-12-25T14:09:00.856Z,79.10
2018-12-25T14:11:40.661Z,76.20
2018-12-25T14:14:19.720Z,78.60
2018-12-25T14:16:59.584Z,78.50
2018-12-25T14:19:39.612Z,78.50
2018-12-25T14:22:19.352Z,78.30
2018-12-25T14:24:59.234Z,78.60
2018-12-25T14:27:38.212Z,77.10
2018-12-25T14:30:17.597Z,78.20
2018-12-25T14:32:57.190Z,77.60
2018-12-25T14:35:36.186Z,78.00
2018-12-25T14:38:15.254Z,77.70
2018-12-25T14:40:55.084Z,77.70
2018-12-25T14:43:34.355Z,77.20
2018-12-25T14:46:14.046Z,77.40
2018-12-25T14:48:53.132Z,77.60
2018-12-25T14:51:33.000Z,77.40
2018-12-25T14:54:11.911Z,77.40
2018-12-25T14:56:51.232Z,77.80
2018-12-25T14:59:31.148Z,77.40
2018-12-25T15:02:10.192Z,77.60
2018-12-25T15:04:49.338Z,77.40
2018-12-25T15:07:28.587Z,77.50
2018-12-25T15:10:08.300Z,76.80
2018-12-25T15:12:47.280Z,77.00
2018-12-25T15:15:26.676Z,76.90
2018-12-25T15:18:06.340Z,76.20
2018-12-25T15:20:45.601Z,76.20
2018-12-25T15:23:28.245Z,76.00
2018-12-25T15:26:06.184Z,76.50
2018-12-25T15:28:45.129Z,76.20
2018-12-25T15:31:24.389Z,76.40
2018-12-25T15:34:03.449Z,76.60
2018-12-25T15:36:42.451Z,76.40
2018-12-25T15:39:21.412Z,76.40
2018-12-25T15:42:01.283Z,76.80
2018-12-25T15:44:40.364Z,76.80
2018-12-25T15:47:19.635Z,77.30
2018-12-25T15:49:59.378Z,76.90
2018-12-25T15:52:38.508Z,77.70
2018-12-25T15:55:17.724Z,77.10
2018-12-25T15:57:57.700Z,77.20
2018-12-25T16:00:37.258Z,77.30
2018-12-25T16:03:17.198Z,77.40
2018-12-25T16:05:56.605Z,77.60
2018-12-25T16:08:36.476Z,77.60
2018-12-25T16:11:16.730Z,77.70
2018-12-25T16:13:56.473Z,77.20
2018-12-25T16:16:35.421Z,77.60
2018-12-25T16:19:14.530Z,77.40
2018-12-25T16:21:53.613Z,77.40
2018-12-25T16:24:32.820Z,76.70
2018-12-25T16:27:12.905Z,77.10
2018-12-25T16:29:53.424Z,77.40
2018-12-25T16:32:32.498Z,76.40
2018-12-25T16:35:11.455Z,77.10
2018-12-25T16:37:50.524Z,77.20
2018-12-25T16:40:29.694Z,77.30
2018-12-25T16:43:09.566Z,76.30
2018-12-25T16:45:48.577Z,76.60
2018-12-25T16:48:28.435Z,76.20
2018-12-25T16:51:07.448Z,75.80
2018-12-25T16:53:53.383Z,75.80
2018-12-25T16:56:27.538Z,75.70
2018-12-25T16:59:07.450Z,75.50
2018-12-25T17:01:46.889Z,75.90
2018-12-25T17:04:26.740Z,75.20
2018-12-25T17:07:05.804Z,75.50
2018-12-25T17:09:45.741Z,74.90
2018-12-25T17:12:25.118Z,74.10
2018-12-25T17:15:04.866Z,75.20
2018-12-25T17:17:44.824Z,75.60
2018-12-25T17:20:23.863Z,75.70
2018-12-25T17:23:04.080Z,76.10
2018-12-25T17:25:44.149Z,76.20
2018-12-25T17:28:27.742Z,75.00
2018-12-25T17:31:04.340Z,74.40
2018-12-25T17:33:43.561Z,75.70
2018-12-25T17:36:23.560Z,76.00
2018-12-25T17:39:03.976Z,76.50
2018-12-25T17:41:43.546Z,76.90
2018-12-25T17:44:23.081Z,76.70
2018-12-25T17:47:02.911Z,76.80
2018-12-25T17:49:42.865Z,77.10
2018-12-25T17:52:22.692Z,77.40
2018-12-25T17:55:02.101Z,77.40
2018-12-25T17:57:41.884Z,77.50
2018-12-25T18:00:21.071Z,77.90
2018-12-25T18:03:01.116Z,77.50
2018-12-25T18:05:40.392Z,77.80
2018-12-25T18:08:20.272Z,77.60
2018-12-25T18:10:59.499Z,76.90
2018-12-25T18:13:39.322Z,77.30
2018-12-25T18:16:18.980Z,77.30
2018-12-25T18:18:58.537Z,76.10
2018-12-25T18:21:37.622Z,77.00
2018-12-25T18:24:19.388Z,76.70
2018-12-25T18:26:58.434Z,74.40
2018-12-25T18:29:38.296Z,75.90
2018-12-25T18:32:17.269Z,75.70
2018-12-25T18:34:56.300Z,75.10
2018-12-25T18:37:35.422Z,75.80
2018-12-25T18:40:14.587Z,75.70
2018-12-25T18:42:54.507Z,75.60
2018-12-25T18:45:33.428Z,76.00
2018-12-25T18:48:13.078Z,75.40
2018-12-25T18:50:52.625Z,75.70
2018-12-25T18:53:31.840Z,75.90
2018-12-25T18:56:11.089Z,76.10
2018-12-25T18:58:51.139Z,75.80
2018-12-25T19:01:30.967Z,76.10
2018-12-25T19:04:09.973Z,76.20
2018-12-25T19:06:49.102Z,75.80
2018-12-25T19:09:29.240Z,74.70
2018-12-25T19:12:08.269Z,76.30
2018-12-25T19:14:48.444Z,76.10
2018-12-25T19:17:28.184Z,76.40
2018-12-25T19:20:07.244Z,76.10
2018-12-25T19:22:46.431Z,76.20
2018-12-25T19:25:25.853Z,75.80
2018-12-25T19:28:05.581Z,76.40
2018-12-25T19:30:44.558Z,76.50
2018-12-25T19:33:24.466Z,76.40
2018-12-25T19:36:03.598Z,76.20
2018-12-25T19:38:43.529Z,76.40
2018-12-25T19:41:22.552Z,76.50
2018-12-25T19:44:01.534Z,76.70
2018-12-25T19:46:40.509Z,76.60
2018-12-25T19:49:19.491Z,76.50
2018-12-25T19:51:59.400Z,76.50
2018-12-25T19:54:44.541Z,76.20
2018-12-25T19:57:19.714Z,76.70
2018-12-25T19:59:59.245Z,76.50
2018-12-25T20:02:38.353Z,76.70
2018-12-25T20:05:17.280Z,76.60
2018-12-25T20:07:56.471Z,76.80
2018-12-25T20:10:35.720Z,76.80
2018-12-25T20:13:15.921Z,76.30
2018-12-25T20:15:55.329Z,76.60
2018-12-25T20:18:34.257Z,76.80
2018-12-25T20:21:13.484Z,76.80
2018-12-25T20:23:53.193Z,76.80
2018-12-25T20:26:32.136Z,77.20
2018-12-25T20:29:11.119Z,77.10
2018-12-25T20:31:50.031Z,76.70
2018-12-25T20:34:29.101Z,77.20
2018-12-25T20:37:08.209Z,77.20
2018-12-25T20:39:47.241Z,77.10
2018-12-25T20:42:26.170Z,77.30
2018-12-25T20:45:06.367Z,77.60
2018-12-25T20:47:46.633Z,77.90
2018-12-25T20:50:26.097Z,77.60
2018-12-25T20:53:05.060Z,77.70
2018-12-25T20:55:44.060Z,77.70
2018-12-25T20:58:23.280Z,76.40
2018-12-25T21:01:02.380Z,77.20
2018-12-25T21:03:41.353Z,77.70
2018-12-25T21:06:20.603Z,77.70
2018-12-25T21:09:00.346Z,77.70
2018-12-25T21:11:40.258Z,77.60
2018-12-25T21:14:20.153Z,77.40
2018-12-25T21:16:59.128Z,77.50
2018-12-25T21:19:38.388Z,77.00
2018-12-25T21:22:18.237Z,77.30
2018-12-25T21:24:58.057Z,77.40
2018-12-25T21:27:37.170Z,77.40
2018-12-25T21:30:16.052Z,77.10
2018-12-25T21:32:55.142Z,77.20
2018-12-25T21:35:34.171Z,77.20
2018-12-25T21:38:13.180Z,77.40
2018-12-25T21:40:52.997Z,77.50
2018-12-25T21:43:32.168Z,77.90
2018-12-25T21:46:11.099Z,77.40
2018-12-25T21:48:50.103Z,77.90
2018-12-25T21:51:29.122Z,78.00
2018-12-25T21:54:08.227Z,78.60
2018-12-25T21:56:48.006Z,78.00
2018-12-25T21:59:27.265Z,78.00
2018-12-25T22:02:06.477Z,77.80
2018-12-25T22:04:45.582Z,77.80
2018-12-25T22:07:24.712Z,77.60
2018-12-25T22:10:03.751Z,77.70
2018-12-25T22:12:42.824Z,78.00
2018-12-25T22:15:22.310Z,78.00
2018-12-25T22:18:01.525Z,78.30
2018-12-25T22:20:41.401Z,78.10
2018-12-25T22:23:21.376Z,78.50
2018-12-25T22:26:00.810Z,78.30
2018-12-25T22:28:40.728Z,77.50
2018-12-25T22:31:20.712Z,78.80
2018-12-25T22:33:59.738Z,78.70
2018-12-25T22:36:39.164Z,78.80
2018-12-25T22:39:18.135Z,78.90
2018-12-25T22:41:58.605Z,79.00
2018-12-25T22:44:38.230Z,78.20
2018-12-25T22:47:17.324Z,79.40
2018-12-25T22:49:56.484Z,79.10
2018-12-25T22:52:35.538Z,78.60
2018-12-25T22:55:14.644Z,78.80
2018-12-25T22:57:54.037Z,78.50
2018-12-25T23:00:33.888Z,78.60
2018-12-25T23:03:13.228Z,78.60
2018-12-25T23:05:52.276Z,78.70
2018-12-25T23:08:31.416Z,78.50
2018-12-25T23:11:10.384Z,78.30
2018-12-25T23:13:49.908Z,77.60
2018-12-25T23:16:29.554Z,78.50
2018-12-25T23:19:09.485Z,78.60
2018-12-25T23:21:48.874Z,78.60
2018-12-25T23:24:28.694Z,78.40
2018-12-25T23:27:07.691Z,78.60
2018-12-25T23:29:46.858Z,78.70
2018-12-25T23:32:26.128Z,78.90
2018-12-25T23:35:05.173Z,78.90
2018-12-25T23:37:45.133Z,79.20
2018-12-25T23:40:25.022Z,78.10
2018-12-25T23:43:04.040Z,79.70
2018-12-25T23:45:43.137Z,79.20
2018-12-25T23:48:22.930Z,79.80
2018-12-25T23:51:02.044Z,80.10
2018-12-25T23:53:41.892Z,80.00
2018-12-25T23:56:20.901Z,80.20
2018-12-25T23:59:00.014Z,80.00
